createdAt,value
2023-01-01T00:02:24.180Z,8.10
2023-01-01T00:04:51.093Z,8.10
2023-01-01T00:07:17.856Z,8.10
2023-01-01T00:10:03.311Z,8.10
2023-01-01T00:12:31.969Z,8.10
2023-01-01T00:14:58.642Z,8.10
2023-01-01T00:17:25.605Z,8.20
2023-01-01T00:19:52.395Z,8.10
2023-01-01T00:25:06.913Z,8.10
2023-01-01T00:27:34.058Z,8.10
2023-01-01T00:30:00.795Z,8.10
2023-01-01T00:32:27.728Z,8.10
2023-01-01T00:34:54.508Z,8.00
2023-01-01T00:37:21.250Z,8.10
2023-01-01T00:39:47.980Z,8.20
2023-01-01T00:42:14.667Z,8.30
2023-01-01T00:44:41.414Z,8.30
2023-01-01T00:47:08.232Z,8.30
2023-01-01T00:49:34.942Z,8.30
2023-01-01T00:52:01.693Z,8.40
2023-01-01T00:54:28.525Z,8.30
2023-01-01T00:56:57.436Z,8.30
2023-01-01T00:59:28.731Z,8.30
2023-01-01T01:01:56.253Z,8.40
2023-01-01T01:04:23.262Z,8.40
2023-01-01T01:06:49.992Z,8.50
2023-01-01T01:09:16.730Z,8.50
2023-01-01T01:11:43.443Z,8.50
2023-01-01T01:14:10.309Z,8.40
2023-01-01T01:16:37.036Z,8.40
2023-01-01T01:19:05.369Z,8.30
2023-01-01T01:21:33.913Z,8.20
2023-01-01T01:24:02.560Z,8.20
2023-01-01T01:26:31.793Z,8.10
2023-01-01T01:28:58.911Z,8.10
2023-01-01T01:31:28.730Z,8.00
2023-01-01T01:33:55.599Z,8.00
2023-01-01T01:36:22.377Z,7.90
2023-01-01T01:38:49.334Z,7.90
2023-01-01T01:41:27.352Z,7.80
2023-01-01T01:44:17.290Z,7.80
2023-01-01T01:46:45.631Z,7.70
2023-01-01T01:49:21.629Z,7.70
2023-01-01T01:51:49.561Z,7.60
2023-01-01T01:57:12.465Z,7.50
2023-01-01T01:59:43.887Z,7.50
2023-01-01T02:02:19.831Z,7.40
2023-01-01T02:04:47.488Z,7.40
2023-01-01T02:07:15.553Z,7.50
2023-01-01T02:09:42.865Z,7.60
2023-01-01T02:12:09.618Z,7.70
2023-01-01T02:14:36.464Z,7.80
2023-01-01T02:17:09.832Z,7.90
2023-01-01T02:19:36.528Z,8.00
2023-01-01T02:22:21.495Z,8.20
2023-01-01T02:24:57.455Z,8.30
2023-01-01T02:27:48.153Z,8.40
2023-01-01T02:30:15.726Z,8.50
2023-01-01T02:32:47.446Z,8.60
2023-01-01T02:35:36.535Z,8.70
2023-01-01T02:38:13.835Z,8.80
2023-01-01T02:40:46.403Z,8.90
2023-01-01T02:43:13.533Z,9.00
2023-01-01T02:45:40.489Z,9.00
2023-01-01T02:48:27.272Z,9.10
2023-01-01T02:50:57.383Z,9.10
2023-01-01T02:53:37.796Z,9.10
2023-01-01T02:56:04.380Z,9.20
2023-01-01T02:59:03.893Z,9.20
2023-01-01T03:01:58.730Z,9.20
2023-01-01T03:04:44.879Z,9.20
2023-01-01T03:07:24.114Z,9.20
2023-01-01T03:10:06.967Z,9.20
2023-01-01T03:12:45.142Z,9.20
2023-01-01T03:15:31.007Z,9.10
2023-01-01T03:18:19.042Z,9.10
2023-01-01T03:20:49.157Z,9.10
2023-01-01T03:23:20.943Z,9.00
2023-01-01T03:25:52.311Z,9.00
2023-01-01T03:28:23.887Z,9.00
2023-01-01T03:30:52.778Z,9.00
2023-01-01T03:33:47.401Z,8.90
2023-01-01T03:36:37.612Z,8.90
2023-01-01T03:39:17.577Z,8.80
2023-01-01T03:41:49.701Z,8.80
2023-01-01T03:44:22.238Z,8.70
2023-01-01T03:46:49.566Z,8.60
2023-01-01T03:49:17.018Z,8.50
2023-01-01T03:51:55.942Z,8.40
2023-01-01T03:54:58.459Z,8.30
2023-01-01T03:57:35.440Z,8.20
2023-01-01T04:00:09.759Z,8.10
2023-01-01T04:02:42.467Z,8.00
2023-01-01T04:05:12.874Z,7.90
2023-01-01T04:07:39.488Z,7.80
2023-01-01T04:10:17.243Z,7.70
2023-01-01T04:12:57.337Z,7.60
2023-01-01T04:15:27.966Z,7.50
2023-01-01T04:17:55.292Z,7.50
2023-01-01T04:20:23.343Z,7.40
2023-01-01T04:22:50.100Z,7.30
2023-01-01T04:25:17.572Z,7.30
2023-01-01T04:27:44.593Z,7.20
2023-01-01T04:30:13.098Z,7.10
2023-01-01T04:32:40.433Z,7.10
2023-01-01T04:35:08.454Z,7.00
2023-01-01T04:37:39.294Z,6.90
2023-01-01T04:40:07.175Z,6.90
2023-01-01T04:42:33.860Z,6.80
2023-01-01T04:45:00.628Z,6.80
2023-01-01T04:47:27.340Z,6.80
2023-01-01T04:49:54.427Z,6.70
2023-01-01T04:52:21.693Z,6.80
2023-01-01T04:54:48.469Z,6.80
2023-01-01T04:57:15.270Z,6.80
2023-01-01T04:59:42.139Z,6.70
2023-01-01T05:02:09.011Z,6.80
2023-01-01T05:04:35.889Z,6.80
2023-01-01T05:07:02.558Z,6.80
2023-01-01T05:09:29.250Z,6.80
2023-01-01T05:11:56.164Z,6.90
2023-01-01T05:14:22.937Z,6.90
2023-01-01T05:16:50.160Z,6.90
2023-01-01T05:19:16.950Z,6.90
2023-01-01T05:21:45.753Z,6.90
2023-01-01T05:24:13.255Z,6.90
2023-01-01T05:26:42.379Z,6.90
2023-01-01T05:29:16.067Z,6.90
2023-01-01T05:31:44.310Z,7.00
2023-01-01T05:34:11.110Z,7.00
2023-01-01T05:36:39.228Z,7.00
2023-01-01T05:39:12.119Z,7.00
2023-01-01T05:41:39.784Z,7.10
2023-01-01T05:44:08.792Z,7.10
2023-01-01T05:46:35.642Z,7.20
2023-01-01T05:49:02.384Z,7.30
2023-01-01T05:53:58.659Z,7.40
2023-01-01T05:56:26.529Z,7.50
2023-01-01T05:58:53.363Z,7.60
2023-01-01T06:01:25.607Z,7.80
2023-01-01T06:03:54.021Z,7.80
2023-01-01T06:06:22.963Z,7.90
2023-01-01T06:08:51.703Z,8.00
2023-01-01T06:11:19.073Z,8.10
2023-01-01T06:13:46.050Z,8.10
2023-01-01T06:16:12.899Z,8.20
2023-01-01T06:18:39.834Z,8.30
2023-01-01T06:21:12.809Z,8.30
2023-01-01T06:23:40.723Z,8.40
2023-01-01T06:26:19.546Z,8.40
2023-01-01T06:28:47.328Z,8.40
2023-01-01T06:31:16.478Z,8.50
2023-01-01T06:33:43.931Z,8.40
2023-01-01T06:36:12.403Z,8.50
2023-01-01T06:38:42.175Z,8.40
2023-01-01T06:41:14.747Z,8.40
2023-01-01T06:43:41.822Z,8.40
2023-01-01T06:46:23.392Z,8.40
2023-01-01T06:48:53.464Z,8.40
2023-01-01T06:51:28.960Z,8.40
2023-01-01T06:53:59.026Z,8.40
2023-01-01T06:56:26.196Z,8.40
2023-01-01T06:58:52.862Z,8.40
2023-01-01T07:01:22.273Z,8.40
2023-01-01T07:03:53.884Z,8.40
2023-01-01T07:06:21.228Z,8.30
2023-01-01T07:08:48.326Z,8.30
2023-01-01T07:11:15.355Z,8.30
2023-01-01T07:13:42.126Z,8.40
2023-01-01T07:16:13.080Z,8.40
2023-01-01T07:18:41.250Z,8.40
2023-01-01T07:21:28.798Z,8.40
2023-01-01T07:23:57.572Z,8.40
2023-01-01T07:26:25.638Z,8.40
2023-01-01T07:28:52.407Z,8.40
2023-01-01T07:31:19.197Z,8.40
2023-01-01T07:33:46.009Z,8.30
2023-01-01T07:36:13.189Z,8.30
2023-01-01T07:38:40.520Z,8.30
2023-01-01T07:41:07.789Z,8.20
2023-01-01T07:43:34.574Z,8.20
2023-01-01T07:46:01.648Z,8.30
2023-01-01T07:48:30.514Z,8.30
2023-01-01T07:51:00.041Z,8.30
2023-01-01T07:53:26.786Z,8.30
2023-01-01T07:55:53.529Z,8.30
2023-01-01T07:58:20.387Z,8.40
2023-01-01T08:00:48.529Z,8.50
2023-01-01T08:03:16.469Z,8.70
2023-01-01T08:05:43.503Z,8.80
2023-01-01T08:08:11.069Z,8.90
2023-01-01T08:10:37.978Z,9.10
2023-01-01T08:13:07.131Z,9.10
2023-01-01T08:15:34.702Z,9.40
2023-01-01T08:18:04.453Z,9.50
2023-01-01T08:20:32.285Z,9.70
2023-01-01T08:23:04.564Z,9.90
2023-01-01T08:25:33.853Z,10.10
2023-01-01T08:28:00.633Z,10.30
2023-01-01T08:30:27.630Z,10.50
2023-01-01T08:32:54.343Z,10.70
2023-01-01T08:35:21.068Z,10.80
2023-01-01T08:37:47.811Z,11.00
2023-01-01T08:40:14.789Z,11.50
2023-01-01T08:42:41.569Z,12.20
2023-01-01T08:45:08.771Z,12.80
2023-01-01T08:47:35.764Z,13.50
2023-01-01T08:50:02.689Z,14.40
2023-01-01T08:52:29.582Z,14.90
2023-01-01T08:54:56.351Z,15.60
2023-01-01T08:57:23.188Z,16.90
2023-01-01T08:59:49.960Z,18.10
2023-01-01T09:02:16.782Z,19.50
2023-01-01T09:04:43.662Z,20.80
2023-01-01T09:07:10.439Z,22.10
2023-01-01T09:09:37.182Z,22.90
2023-01-01T09:12:06.232Z,23.50
2023-01-01T09:14:34.273Z,23.70
2023-01-01T09:17:01.530Z,23.80
2023-01-01T09:19:28.404Z,23.40
2023-01-01T09:21:55.507Z,22.70
2023-01-01T09:24:22.471Z,22.20
2023-01-01T09:26:49.512Z,21.70
2023-01-01T09:29:18.675Z,21.10
2023-01-01T09:31:46.196Z,20.50
2023-01-01T09:34:13.237Z,20.20
2023-01-01T09:36:40.122Z,20.00
2023-01-01T09:39:06.880Z,19.80
2023-01-01T09:42:20.511Z,19.50
2023-01-01T09:45:16.120Z,19.20
2023-01-01T09:47:51.620Z,19.00
2023-01-01T09:50:22.388Z,18.70
2023-01-01T09:52:52.676Z,18.50
2023-01-01T09:55:46.034Z,18.40
2023-01-01T09:58:13.485Z,18.20
2023-01-01T10:00:44.937Z,18.20
2023-01-01T10:03:11.993Z,18.00
2023-01-01T10:05:55.123Z,17.90
2023-01-01T10:08:48.456Z,17.70
2023-01-01T10:11:27.350Z,17.80
2023-01-01T10:13:56.882Z,17.90
2023-01-01T10:16:46.961Z,17.90
2023-01-01T10:19:26.431Z,18.00
2023-01-01T10:21:58.049Z,18.20
2023-01-01T10:24:36.771Z,18.40
2023-01-01T10:27:05.921Z,18.30
2023-01-01T10:29:46.510Z,18.20
2023-01-01T10:32:20.938Z,18.40
2023-01-01T10:34:49.203Z,18.60
2023-01-01T10:37:16.098Z,18.90
2023-01-01T10:39:44.555Z,19.30
2023-01-01T10:42:13.404Z,19.30
2023-01-01T10:44:41.093Z,19.30
2023-01-01T10:47:22.964Z,19.40
2023-01-01T10:49:59.933Z,19.60
2023-01-01T10:52:34.740Z,19.80
2023-01-01T10:55:01.699Z,19.90
2023-01-01T10:57:28.376Z,20.00
2023-01-01T11:00:06.712Z,20.20
2023-01-01T11:02:33.503Z,20.20
2023-01-01T11:05:22.510Z,20.20
2023-01-01T11:07:50.136Z,20.20
2023-01-01T11:10:22.650Z,20.20
2023-01-01T11:13:09.746Z,20.20
2023-01-01T11:15:38.809Z,20.20
2023-01-01T11:18:25.899Z,20.30
2023-01-01T11:20:58.056Z,20.40
2023-01-01T11:23:35.156Z,20.40
2023-01-01T11:26:24.624Z,20.30
2023-01-01T11:29:16.357Z,20.30
2023-01-01T11:31:45.746Z,20.20
2023-01-01T11:34:27.511Z,20.20
2023-01-01T11:37:11.894Z,20.20
2023-01-01T11:39:43.022Z,20.30
2023-01-01T11:42:18.053Z,20.40
2023-01-01T11:44:48.907Z,20.50
2023-01-01T11:47:30.920Z,20.50
2023-01-01T11:50:02.816Z,20.40
2023-01-01T11:52:40.944Z,20.30
2023-01-01T11:55:20.747Z,20.10
2023-01-01T11:58:15.911Z,19.90
2023-01-01T12:00:47.947Z,19.80
2023-01-01T12:03:34.849Z,19.60
2023-01-01T12:06:20.609Z,19.50
2023-01-01T12:08:56.447Z,19.40
2023-01-01T12:11:49.746Z,19.30
2023-01-01T12:14:33.409Z,19.10
2023-01-01T12:17:18.962Z,19.00
2023-01-01T12:19:56.872Z,18.90
2023-01-01T12:22:23.834Z,18.80
2023-01-01T12:24:52.277Z,18.80
2023-01-01T12:27:40.653Z,18.80
2023-01-01T12:30:16.971Z,18.70
2023-01-01T12:33:12.767Z,18.60
2023-01-01T12:36:08.536Z,18.50
2023-01-01T12:39:22.617Z,18.30
2023-01-01T12:41:57.513Z,18.30
2023-01-01T12:44:32.876Z,18.10
2023-01-01T12:47:02.682Z,18.10
2023-01-01T12:49:40.694Z,18.00
2023-01-01T12:52:46.007Z,17.90
2023-01-01T12:55:25.037Z,17.90
2023-01-01T12:58:11.085Z,17.80
2023-01-01T13:00:39.800Z,17.80
2023-01-01T13:03:26.788Z,17.70
2023-01-01T13:05:56.350Z,17.60
2023-01-01T13:08:23.045Z,17.60
2023-01-01T13:10:53.182Z,17.60
2023-01-01T13:13:20.006Z,17.50
2023-01-01T13:15:50.097Z,17.50
2023-01-01T13:18:24.639Z,17.50
2023-01-01T13:20:57.807Z,17.40
2023-01-01T13:23:34.757Z,17.30
2023-01-01T13:26:22.880Z,17.20
2023-01-01T13:28:59.001Z,17.20
2023-01-01T13:31:38.081Z,17.10
2023-01-01T13:34:58.493Z,17.00
2023-01-01T13:37:26.106Z,17.00
2023-01-01T13:39:54.229Z,16.90
2023-01-01T13:42:39.789Z,16.90
2023-01-01T13:48:57.542Z,16.70
2023-01-01T13:52:06.868Z,16.70
2023-01-01T13:54:49.481Z,16.60
2023-01-01T13:57:22.320Z,16.60
2023-01-01T13:59:57.929Z,16.60
2023-01-01T14:02:40.657Z,16.50
2023-01-01T14:05:22.923Z,16.50
2023-01-01T14:07:52.316Z,16.40
2023-01-01T14:10:25.912Z,16.40
2023-01-01T14:12:54.531Z,16.40
2023-01-01T14:15:28.026Z,16.40
2023-01-01T14:17:57.886Z,16.30
2023-01-01T14:20:42.031Z,16.30
2023-01-01T14:23:27.522Z,16.20
2023-01-01T14:25:54.532Z,16.10
2023-01-01T14:28:33.006Z,16.00
2023-01-01T14:31:10.276Z,16.00
2023-01-01T14:33:38.225Z,15.90
2023-01-01T14:36:14.525Z,15.80
2023-01-01T14:38:46.434Z,15.70
2023-01-01T14:41:16.275Z,15.70
2023-01-01T14:43:45.233Z,15.60
2023-01-01T14:46:25.508Z,15.50
2023-01-01T14:48:58.507Z,15.40
2023-01-01T14:51:30.611Z,15.30
2023-01-01T14:54:03.254Z,15.20
2023-01-01T14:56:34.225Z,15.20
2023-01-01T14:59:10.904Z,15.10
2023-01-01T15:01:39.606Z,15.00
2023-01-01T15:04:19.369Z,15.00
2023-01-01T15:06:46.134Z,14.90
2023-01-01T15:09:16.606Z,14.80
2023-01-01T15:11:43.582Z,14.70
2023-01-01T15:14:29.225Z,14.60
2023-01-01T15:17:13.911Z,14.60
2023-01-01T15:19:43.071Z,14.40
2023-01-01T15:22:31.523Z,14.30
2023-01-01T15:25:00.404Z,14.20
2023-01-01T15:27:30.591Z,14.10
2023-01-01T15:29:57.995Z,13.90
2023-01-01T15:32:28.182Z,13.80
2023-01-01T15:34:57.420Z,13.60
2023-01-01T15:37:34.125Z,13.50
2023-01-01T15:40:22.504Z,13.40
2023-01-01T15:42:55.453Z,13.30
2023-01-01T15:45:30.803Z,13.20
2023-01-01T15:48:18.587Z,13.00
2023-01-01T15:50:51.161Z,12.90
2023-01-01T15:53:23.812Z,12.70
2023-01-01T15:56:00.300Z,12.60
2023-01-01T15:58:34.238Z,12.50
2023-01-01T16:01:03.716Z,12.30
2023-01-01T16:03:33.362Z,12.20
2023-01-01T16:06:00.748Z,12.00
2023-01-01T16:08:27.610Z,11.90
2023-01-01T16:10:54.298Z,11.70
2023-01-01T16:13:21.091Z,11.60
2023-01-01T16:16:00.608Z,11.50
2023-01-01T16:18:37.142Z,11.30
2023-01-01T16:21:05.771Z,11.20
2023-01-01T16:23:32.538Z,11.10
2023-01-01T16:25:59.278Z,10.90
2023-01-01T16:28:26.059Z,10.80
2023-01-01T16:30:53.114Z,10.70
2023-01-01T16:33:22.847Z,10.60
2023-01-01T16:35:49.819Z,10.50
2023-01-01T16:38:16.577Z,10.40
2023-01-01T16:40:43.321Z,10.30
2023-01-01T16:43:16.848Z,10.20
2023-01-01T16:45:44.988Z,10.10
2023-01-01T16:48:11.937Z,10.00
2023-01-01T16:50:38.760Z,10.00
2023-01-01T16:53:05.473Z,9.90
2023-01-01T16:55:32.346Z,9.80
2023-01-01T16:58:29.580Z,9.70
2023-01-01T17:00:46.888Z,9.60
2023-01-01T17:03:14.187Z,9.50
2023-01-01T17:05:44.308Z,9.40
2023-01-01T17:08:11.876Z,9.40
2023-01-01T17:10:38.562Z,9.30
2023-01-01T17:13:05.337Z,9.20
2023-01-01T17:15:32.543Z,9.20
2023-01-01T17:17:59.630Z,9.10
2023-01-01T17:20:27.051Z,9.00
2023-01-01T17:22:54.238Z,8.90
2023-01-01T17:25:21.066Z,8.90
2023-01-01T17:27:47.825Z,8.80
2023-01-01T17:30:15.132Z,8.70
2023-01-01T17:32:41.900Z,8.60
2023-01-01T17:35:09.030Z,8.60
2023-01-01T17:37:35.847Z,8.50
2023-01-01T17:40:02.607Z,8.50
2023-01-01T17:42:29.864Z,8.40
2023-01-01T17:44:56.594Z,8.40
2023-01-01T17:47:26.710Z,8.30
2023-01-01T17:49:57.580Z,8.20
2023-01-01T17:52:24.279Z,8.20
2023-01-01T17:54:51.838Z,8.10
2023-01-01T17:57:19.430Z,8.10
2023-01-01T17:59:46.148Z,8.00
2023-01-01T18:02:13.825Z,8.00
2023-01-01T18:04:41.489Z,8.00
2023-01-01T18:07:08.230Z,7.90
2023-01-01T18:09:38.000Z,7.80
2023-01-01T18:12:05.770Z,7.80
2023-01-01T18:14:32.647Z,7.70
2023-01-01T18:16:59.371Z,7.70
2023-01-01T18:19:27.680Z,7.60
2023-01-01T18:21:54.879Z,7.50
2023-01-01T18:24:21.595Z,7.50
2023-01-01T18:26:48.546Z,7.50
2023-01-01T18:29:15.253Z,7.50
2023-01-01T18:31:42.128Z,7.50
2023-01-01T18:34:09.962Z,7.50
2023-01-01T18:36:36.782Z,7.50
2023-01-01T18:39:09.540Z,7.50
2023-01-01T18:41:48.610Z,7.50
2023-01-01T18:44:35.674Z,7.40
2023-01-01T18:47:14.432Z,7.40
2023-01-01T18:49:47.474Z,7.40
2023-01-01T18:52:28.520Z,7.40
2023-01-01T18:55:10.028Z,7.40
2023-01-01T18:57:37.244Z,7.40
2023-01-01T19:00:37.143Z,7.40
2023-01-01T19:03:11.778Z,7.50
2023-01-01T19:05:38.597Z,7.50
2023-01-01T19:08:08.270Z,7.50
2023-01-01T19:10:46.238Z,7.60
2023-01-01T19:13:19.811Z,7.60
2023-01-01T19:15:59.098Z,7.60
2023-01-01T19:18:30.178Z,7.60
2023-01-01T19:21:21.337Z,7.60
2023-01-01T19:23:50.683Z,7.60
2023-01-01T19:26:25.087Z,7.50
2023-01-01T19:29:02.286Z,7.50
2023-01-01T19:31:29.106Z,7.40
2023-01-01T19:33:55.855Z,7.40
2023-01-01T19:36:22.567Z,7.30
2023-01-01T19:38:49.260Z,7.20
2023-01-01T19:41:15.967Z,7.20
2023-01-01T19:43:42.674Z,7.10
2023-01-01T19:46:09.484Z,7.10
2023-01-01T19:48:36.211Z,7.00
2023-01-01T19:51:02.900Z,7.00
2023-01-01T19:53:29.662Z,7.00
2023-01-01T19:55:56.388Z,6.90
2023-01-01T19:58:23.239Z,6.90
2023-01-01T20:00:50.963Z,6.90
2023-01-01T20:06:05.958Z,6.80
2023-01-01T20:08:32.960Z,6.80
2023-01-01T20:10:59.850Z,6.80
2023-01-01T20:13:26.989Z,6.70
2023-01-01T20:15:53.795Z,6.70
2023-01-01T20:18:20.678Z,6.60
2023-01-01T20:21:05.852Z,6.60
2023-01-01T20:23:32.735Z,6.60
2023-01-01T20:25:59.547Z,6.60
2023-01-01T20:28:44.763Z,6.60
2023-01-01T20:31:11.719Z,6.60
2023-01-01T20:33:38.539Z,6.60
2023-01-01T20:36:23.792Z,6.50
2023-01-01T20:38:50.540Z,6.50
2023-01-01T20:41:26.129Z,6.60
2023-01-01T20:43:55.355Z,6.50
2023-01-01T20:46:23.022Z,6.50
2023-01-01T20:48:49.766Z,6.50
2023-01-01T20:51:16.545Z,6.50
2023-01-01T20:53:44.057Z,6.50
2023-01-01T20:56:11.124Z,6.50
2023-01-01T20:58:41.429Z,6.50
2023-01-01T21:01:11.266Z,6.50
2023-01-01T21:03:38.104Z,6.50
2023-01-01T21:06:05.009Z,6.50
2023-01-01T21:08:31.779Z,6.40
2023-01-01T21:10:58.542Z,6.40
2023-01-01T21:13:25.770Z,6.30
2023-01-01T21:15:56.585Z,6.30
2023-01-01T21:18:30.651Z,6.20
2023-01-01T21:20:57.467Z,6.10
2023-01-01T21:23:29.211Z,6.10
2023-01-01T21:25:57.101Z,6.00
2023-01-01T21:28:29.036Z,6.00
2023-01-01T21:30:59.813Z,5.90
2023-01-01T21:33:32.115Z,5.90
2023-01-01T21:36:02.094Z,5.80
2023-01-01T21:38:32.371Z,5.80
2023-01-01T21:40:59.940Z,5.70
2023-01-01T21:43:38.556Z,5.60
2023-01-01T21:46:08.457Z,5.60
2023-01-01T21:48:37.127Z,5.60
2023-01-01T21:51:15.187Z,5.60
2023-01-01T21:53:42.135Z,5.50
2023-01-01T21:56:32.715Z,5.50
2023-01-01T21:59:25.796Z,5.40
2023-01-01T22:02:07.653Z,5.50
2023-01-01T22:04:46.438Z,5.40
2023-01-01T22:10:13.071Z,5.40
2023-01-01T22:12:39.916Z,5.30
2023-01-01T22:15:41.471Z,5.30
2023-01-01T22:18:25.252Z,5.30
2023-01-01T22:20:52.807Z,5.20
2023-01-01T22:23:30.622Z,5.20
2023-01-01T22:25:57.439Z,5.20
2023-01-01T22:28:26.687Z,5.20
2023-01-01T22:30:58.134Z,5.20
2023-01-01T22:33:41.616Z,5.20
2023-01-01T22:36:28.037Z,5.10
2023-01-01T22:38:58.225Z,5.10
2023-01-01T22:41:25.078Z,5.10
2023-01-01T22:44:12.347Z,5.00
2023-01-01T22:46:40.971Z,5.00
2023-01-01T22:49:10.802Z,4.90
2023-01-01T22:51:46.375Z,4.90
2023-01-01T22:54:13.245Z,4.80
2023-01-01T22:56:39.992Z,4.80
2023-01-01T22:59:06.780Z,4.70
2023-01-01T23:01:33.586Z,4.70
2023-01-01T23:04:00.391Z,4.60
2023-01-01T23:06:27.247Z,4.60
2023-01-01T23:08:54.374Z,4.60
2023-01-01T23:11:21.868Z,4.60
2023-01-01T23:14:09.329Z,4.60
2023-01-01T23:16:36.815Z,4.60
2023-01-01T23:19:04.704Z,4.60
2023-01-01T23:21:33.674Z,4.50
2023-01-01T23:24:02.995Z,4.50
2023-01-01T23:26:29.843Z,4.50
2023-01-01T23:28:56.696Z,4.40
2023-01-01T23:31:27.122Z,4.40
2023-01-01T23:33:58.159Z,4.40
2023-01-01T23:36:26.498Z,4.50
2023-01-01T23:38:53.311Z,4.40
2023-01-01T23:41:20.347Z,4.40
2023-01-01T23:43:47.095Z,4.40
2023-01-01T23:46:14.803Z,4.30
2023-01-01T23:48:44.029Z,4.30
2023-01-01T23:51:12.187Z,4.30
2023-01-01T23:53:39.003Z,4.30
2023-01-01T23:56:06.133Z,4.20
2023-01-01T23:58:32.880Z,4.20
